sensor_id;sensor_type;location;lat;lon;timestamp;temperature;humidity
31369;DHT22;18004;48.416;10.066;2022-12-07T00:00:42;2.60;99.90
31369;DHT22;18004;48.416;10.066;2022-12-07T00:03:08;2.60;99.90
31369;DHT22;18004;48.416;10.066;2022-12-07T00:05:33;2.60;99.90
31369;DHT22;18004;48.416;10.066;2022-12-07T00:07:59;2.60;99.90
31369;DHT22;18004;48.416;10.066;2022-12-07T00:10:25;2.60;99.90
31369;DHT22;18004;48.416;10.066;2022-12-07T00:12:50;2.60;99.90
31369;DHT22;18004;48.416;10.066;2022-12-07T00:15:16;2.60;99.90
31369;DHT22;18004;48.416;10.066;2022-12-07T00:17:42;2.60;99.90
31369;DHT22;18004;48.416;10.066;2022-12-07T00:20:08;2.60;99.90
31369;DHT22;18004;48.416;10.066;2022-12-07T00:22:34;2.60;99.90
31369;DHT22;18004;48.416;10.066;2022-12-07T00:24:59;2.70;99.90
31369;DHT22;18004;48.416;10.066;2022-12-07T00:27:27;2.70;99.90
31369;DHT22;18004;48.416;10.066;2022-12-07T00:29:52;2.70;99.90
31369;DHT22;18004;48.416;10.066;2022-12-07T00:32:18;2.60;99.90
31369;DHT22;18004;48.416;10.066;2022-12-07T00:34:44;2.70;99.90
31369;DHT22;18004;48.416;10.066;2022-12-07T00:37:09;2.70;99.90
31369;DHT22;18004;48.416;10.066;2022-12-07T00:39:35;2.70;99.90
31369;DHT22;18004;48.416;10.066;2022-12-07T00:42:01;2.70;99.90
31369;DHT22;18004;48.416;10.066;2022-12-07T00:44:27;2.70;99.90
31369;DHT22;18004;48.416;10.066;2022-12-07T00:46:52;2.70;99.90
31369;DHT22;18004;48.416;10.066;2022-12-07T00:49:18;2.70;99.90
31369;DHT22;18004;48.416;10.066;2022-12-07T00:51:44;2.70;99.90
31369;DHT22;18004;48.416;10.066;2022-12-07T00:54:10;2.70;99.90
31369;DHT22;18004;48.416;10.066;2022-12-07T00:56:35;2.80;99.90
31369;DHT22;18004;48.416;10.066;2022-12-07T00:59:03;2.80;99.90
31369;DHT22;18004;48.416;10.066;2022-12-07T01:01:32;2.80;99.90
31369;DHT22;18004;48.416;10.066;2022-12-07T01:03:58;2.80;99.90
31369;DHT22;18004;48.416;10.066;2022-12-07T01:06:26;2.80;99.90
31369;DHT22;18004;48.416;10.066;2022-12-07T01:08:53;2.80;99.90
31369;DHT22;18004;48.416;10.066;2022-12-07T01:11:21;2.80;99.90
31369;DHT22;18004;48.416;10.066;2022-12-07T01:13:51;2.80;99.90
31369;DHT22;18004;48.416;10.066;2022-12-07T01:16:18;2.80;99.90
31369;DHT22;18004;48.416;10.066;2022-12-07T01:18:47;2.80;99.90
31369;DHT22;18004;48.416;10.066;2022-12-07T01:21:33;2.90;99.90
31369;DHT22;18004;48.416;10.066;2022-12-07T01:24:02;2.90;99.90
31369;DHT22;18004;48.416;10.066;2022-12-07T01:26:28;2.90;99.90
31369;DHT22;18004;48.416;10.066;2022-12-07T01:28:54;2.90;99.90
31369;DHT22;18004;48.416;10.066;2022-12-07T01:31:23;2.80;99.90
31369;DHT22;18004;48.416;10.066;2022-12-07T01:33:52;2.80;99.90
31369;DHT22;18004;48.416;10.066;2022-12-07T01:38:53;2.90;99.90
31369;DHT22;18004;48.416;10.066;2022-12-07T01:41:22;2.90;99.90
31369;DHT22;18004;48.416;10.066;2022-12-07T01:46:52;2.80;99.90
31369;DHT22;18004;48.416;10.066;2022-12-07T01:51:47;2.80;99.90
31369;DHT22;18004;48.416;10.066;2022-12-07T01:54:15;2.80;99.90
31369;DHT22;18004;48.416;10.066;2022-12-07T01:56:50;2.80;99.90
31369;DHT22;18004;48.416;10.066;2022-12-07T01:59:17;2.80;99.90
31369;DHT22;18004;48.416;10.066;2022-12-07T02:01:43;2.80;99.90
31369;DHT22;18004;48.416;10.066;2022-12-07T02:04:10;2.80;99.90
31369;DHT22;18004;48.416;10.066;2022-12-07T02:06:37;2.80;99.90
31369;DHT22;18004;48.416;10.066;2022-12-07T02:09:04;2.90;99.90
31369;DHT22;18004;48.416;10.066;2022-12-07T02:11:30;2.90;99.90
31369;DHT22;18004;48.416;10.066;2022-12-07T02:13:56;2.90;99.90
31369;DHT22;18004;48.416;10.066;2022-12-07T02:30:02;2.90;99.90
31369;DHT22;18004;48.416;10.066;2022-12-07T02:35:20;3.00;99.90
31369;DHT22;18004;48.416;10.066;2022-12-07T02:37:57;3.00;99.90
31369;DHT22;18004;48.416;10.066;2022-12-07T02:40:34;3.10;99.90
31369;DHT22;18004;48.416;10.066;2022-12-07T02:43:19;3.10;99.90
31369;DHT22;18004;48.416;10.066;2022-12-07T02:45:47;3.10;99.90
31369;DHT22;18004;48.416;10.066;2022-12-07T02:48:17;3.10;99.90
31369;DHT22;18004;48.416;10.066;2022-12-07T02:50:48;3.10;99.90
31369;DHT22;18004;48.416;10.066;2022-12-07T02:53:39;3.10;99.90
31369;DHT22;18004;48.416;10.066;2022-12-07T03:02:07;3.10;99.90
31369;DHT22;18004;48.416;10.066;2022-12-07T03:15:46;3.10;99.90
31369;DHT22;18004;48.416;10.066;2022-12-07T03:18:18;3.10;99.90
31369;DHT22;18004;48.416;10.066;2022-12-07T03:20:46;3.10;99.90
31369;DHT22;18004;48.416;10.066;2022-12-07T03:23:14;3.20;99.90
31369;DHT22;18004;48.416;10.066;2022-12-07T03:25:46;3.10;99.90
31369;DHT22;18004;48.416;10.066;2022-12-07T03:28:16;3.10;99.90
31369;DHT22;18004;48.416;10.066;2022-12-07T03:30:51;3.10;99.90
31369;DHT22;18004;48.416;10.066;2022-12-07T03:36:18;3.10;99.90
31369;DHT22;18004;48.416;10.066;2022-12-07T03:38:49;3.00;99.90
31369;DHT22;18004;48.416;10.066;2022-12-07T03:41:28;3.00;99.90
31369;DHT22;18004;48.416;10.066;2022-12-07T03:43:55;3.00;99.90
31369;DHT22;18004;48.416;10.066;2022-12-07T03:55:34;2.80;99.90
31369;DHT22;18004;48.416;10.066;2022-12-07T03:57:29;2.70;99.90
31369;DHT22;18004;48.416;10.066;2022-12-07T03:59:57;2.80;99.90
31369;DHT22;18004;48.416;10.066;2022-12-07T04:02:25;2.70;99.90
31369;DHT22;18004;48.416;10.066;2022-12-07T04:04:51;2.80;99.90
31369;DHT22;18004;48.416;10.066;2022-12-07T04:07:17;2.80;99.90
31369;DHT22;18004;48.416;10.066;2022-12-07T04:09:43;2.70;99.90
31369;DHT22;18004;48.416;10.066;2022-12-07T04:12:09;2.70;99.90
31369;DHT22;18004;48.416;10.066;2022-12-07T04:14:35;2.70;99.90
31369;DHT22;18004;48.416;10.066;2022-12-07T04:17:00;2.70;99.90
31369;DHT22;18004;48.416;10.066;2022-12-07T04:19:28;2.70;99.90
31369;DHT22;18004;48.416;10.066;2022-12-07T04:21:55;2.70;99.90
31369;DHT22;18004;48.416;10.066;2022-12-07T04:24:22;2.70;99.90
31369;DHT22;18004;48.416;10.066;2022-12-07T04:26:48;2.70;99.90
31369;DHT22;18004;48.416;10.066;2022-12-07T04:29:17;2.60;99.90
31369;DHT22;18004;48.416;10.066;2022-12-07T04:31:44;2.70;99.90
31369;DHT22;18004;48.416;10.066;2022-12-07T04:34:11;2.70;99.90
31369;DHT22;18004;48.416;10.066;2022-12-07T04:36:37;2.60;99.90
31369;DHT22;18004;48.416;10.066;2022-12-07T04:39:04;2.60;99.90
31369;DHT22;18004;48.416;10.066;2022-12-07T04:41:30;2.60;99.90
31369;DHT22;18004;48.416;10.066;2022-12-07T04:44:03;2.60;99.90
31369;DHT22;18004;48.416;10.066;2022-12-07T04:46:33;2.60;99.90
31369;DHT22;18004;48.416;10.066;2022-12-07T04:48:59;2.60;99.90
31369;DHT22;18004;48.416;10.066;2022-12-07T04:51:27;2.60;99.90
31369;DHT22;18004;48.416;10.066;2022-12-07T04:53:53;2.70;99.90
31369;DHT22;18004;48.416;10.066;2022-12-07T04:56:21;2.70;99.90
31369;DHT22;18004;48.416;10.066;2022-12-07T04:58:47;2.70;99.90
31369;DHT22;18004;48.416;10.066;2022-12-07T05:01:17;2.60;99.90
31369;DHT22;18004;48.416;10.066;2022-12-07T05:03:43;2.70;99.90
31369;DHT22;18004;48.416;10.066;2022-12-07T05:06:09;2.60;99.90
31369;DHT22;18004;48.416;10.066;2022-12-07T05:08:36;2.60;99.90
31369;DHT22;18004;48.416;10.066;2022-12-07T05:11:03;2.60;99.90
31369;DHT22;18004;48.416;10.066;2022-12-07T05:13:29;2.60;99.90
31369;DHT22;18004;48.416;10.066;2022-12-07T05:15:55;2.60;99.90
31369;DHT22;18004;48.416;10.066;2022-12-07T05:18:20;2.60;99.90
31369;DHT22;18004;48.416;10.066;2022-12-07T05:20:46;2.60;99.90
31369;DHT22;18004;48.416;10.066;2022-12-07T05:23:12;2.70;99.90
31369;DHT22;18004;48.416;10.066;2022-12-07T05:25:38;2.70;99.90
31369;DHT22;18004;48.416;10.066;2022-12-07T05:28:04;2.70;99.90
31369;DHT22;18004;48.416;10.066;2022-12-07T05:30:30;2.70;99.90
31369;DHT22;18004;48.416;10.066;2022-12-07T05:32:57;2.70;99.90
31369;DHT22;18004;48.416;10.066;2022-12-07T05:35:22;2.70;99.90
31369;DHT22;18004;48.416;10.066;2022-12-07T05:37:48;2.70;99.90
31369;DHT22;18004;48.416;10.066;2022-12-07T05:40:15;2.70;99.90
31369;DHT22;18004;48.416;10.066;2022-12-07T05:42:41;2.70;99.90
31369;DHT22;18004;48.416;10.066;2022-12-07T05:45:10;2.60;99.90
31369;DHT22;18004;48.416;10.066;2022-12-07T05:47:37;2.50;99.90
31369;DHT22;18004;48.416;10.066;2022-12-07T05:50:06;2.40;99.90
31369;DHT22;18004;48.416;10.066;2022-12-07T05:52:32;2.30;99.90
31369;DHT22;18004;48.416;10.066;2022-12-07T05:54:58;2.30;99.90
31369;DHT22;18004;48.416;10.066;2022-12-07T05:57:24;2.30;99.90
31369;DHT22;18004;48.416;10.066;2022-12-07T05:59:50;2.30;99.90
31369;DHT22;18004;48.416;10.066;2022-12-07T06:02:16;2.30;99.90
31369;DHT22;18004;48.416;10.066;2022-12-07T06:04:44;2.30;99.90
31369;DHT22;18004;48.416;10.066;2022-12-07T06:07:12;2.30;99.90
31369;DHT22;18004;48.416;10.066;2022-12-07T06:09:39;2.30;99.90
31369;DHT22;18004;48.416;10.066;2022-12-07T06:12:05;2.40;99.90
31369;DHT22;18004;48.416;10.066;2022-12-07T06:14:49;2.40;99.90
31369;DHT22;18004;48.416;10.066;2022-12-07T06:17:15;2.40;99.90
31369;DHT22;18004;48.416;10.066;2022-12-07T06:19:41;2.30;99.90
31369;DHT22;18004;48.416;10.066;2022-12-07T06:22:08;2.20;99.90
31369;DHT22;18004;48.416;10.066;2022-12-07T06:24:35;2.30;99.90
31369;DHT22;18004;48.416;10.066;2022-12-07T06:27:00;2.30;99.90
31369;DHT22;18004;48.416;10.066;2022-12-07T06:29:26;2.30;99.90
31369;DHT22;18004;48.416;10.066;2022-12-07T06:31:52;2.30;99.90
31369;DHT22;18004;48.416;10.066;2022-12-07T06:34:20;2.20;99.90
31369;DHT22;18004;48.416;10.066;2022-12-07T06:36:47;2.20;99.90
31369;DHT22;18004;48.416;10.066;2022-12-07T06:39:17;2.10;99.90
31369;DHT22;18004;48.416;10.066;2022-12-07T06:41:43;2.10;99.90
31369;DHT22;18004;48.416;10.066;2022-12-07T06:44:12;2.00;99.90
31369;DHT22;18004;48.416;10.066;2022-12-07T06:46:38;2.00;99.90
31369;DHT22;18004;48.416;10.066;2022-12-07T06:49:04;1.90;99.90
31369;DHT22;18004;48.416;10.066;2022-12-07T06:51:31;2.00;99.90
31369;DHT22;18004;48.416;10.066;2022-12-07T06:53:57;2.00;99.90
31369;DHT22;18004;48.416;10.066;2022-12-07T06:56:23;2.00;99.90
31369;DHT22;18004;48.416;10.066;2022-12-07T06:58:49;2.00;99.90
31369;DHT22;18004;48.416;10.066;2022-12-07T07:01:16;2.00;99.90
31369;DHT22;18004;48.416;10.066;2022-12-07T07:03:44;2.00;99.90
31369;DHT22;18004;48.416;10.066;2022-12-07T07:06:10;2.00;99.90
31369;DHT22;18004;48.416;10.066;2022-12-07T07:08:36;2.00;99.90
31369;DHT22;18004;48.416;10.066;2022-12-07T07:11:03;2.00;99.90
31369;DHT22;18004;48.416;10.066;2022-12-07T07:13:29;2.00;99.90
31369;DHT22;18004;48.416;10.066;2022-12-07T07:15:55;1.90;99.90
31369;DHT22;18004;48.416;10.066;2022-12-07T07:18:24;1.90;99.90
31369;DHT22;18004;48.416;10.066;2022-12-07T07:20:53;1.90;99.90
31369;DHT22;18004;48.416;10.066;2022-12-07T07:23:20;2.00;99.90
31369;DHT22;18004;48.416;10.066;2022-12-07T07:25:46;2.00;99.90
31369;DHT22;18004;48.416;10.066;2022-12-07T07:28:12;2.00;99.90
31369;DHT22;18004;48.416;10.066;2022-12-07T07:30:38;2.00;99.90
31369;DHT22;18004;48.416;10.066;2022-12-07T07:33:04;2.00;99.90
31369;DHT22;18004;48.416;10.066;2022-12-07T07:35:32;2.00;99.90
31369;DHT22;18004;48.416;10.066;2022-12-07T07:37:59;2.10;99.90
31369;DHT22;18004;48.416;10.066;2022-12-07T07:40:25;2.10;99.90
31369;DHT22;18004;48.416;10.066;2022-12-07T07:42:53;2.10;99.90
31369;DHT22;18004;48.416;10.066;2022-12-07T07:45:20;2.20;99.90
31369;DHT22;18004;48.416;10.066;2022-12-07T07:47:47;2.20;99.90
31369;DHT22;18004;48.416;10.066;2022-12-07T07:50:13;2.20;99.90
31369;DHT22;18004;48.416;10.066;2022-12-07T07:52:39;2.20;99.90
31369;DHT22;18004;48.416;10.066;2022-12-07T07:55:06;2.30;99.90
31369;DHT22;18004;48.416;10.066;2022-12-07T07:57:37;2.30;99.90
31369;DHT22;18004;48.416;10.066;2022-12-07T08:00:05;2.40;99.90
31369;DHT22;18004;48.416;10.066;2022-12-07T08:02:31;2.50;99.90
31369;DHT22;18004;48.416;10.066;2022-12-07T08:04:57;2.60;99.90
31369;DHT22;18004;48.416;10.066;2022-12-07T08:07:22;2.70;99.90
31369;DHT22;18004;48.416;10.066;2022-12-07T08:09:48;2.80;99.90
31369;DHT22;18004;48.416;10.066;2022-12-07T08:12:14;2.70;99.90
31369;DHT22;18004;48.416;10.066;2022-12-07T08:14:40;2.80;99.90
31369;DHT22;18004;48.416;10.066;2022-12-07T08:17:06;2.80;99.90
31369;DHT22;18004;48.416;10.066;2022-12-07T08:19:33;2.80;99.90
31369;DHT22;18004;48.416;10.066;2022-12-07T08:21:58;2.90;99.90
31369;DHT22;18004;48.416;10.066;2022-12-07T08:24:24;3.00;99.90
31369;DHT22;18004;48.416;10.066;2022-12-07T08:26:50;3.00;99.90
31369;DHT22;18004;48.416;10.066;2022-12-07T08:29:16;3.00;99.90
31369;DHT22;18004;48.416;10.066;2022-12-07T08:31:42;3.10;99.90
31369;DHT22;18004;48.416;10.066;2022-12-07T08:34:10;3.10;99.90
31369;DHT22;18004;48.416;10.066;2022-12-07T08:36:36;3.20;99.90
31369;DHT22;18004;48.416;10.066;2022-12-07T08:39:03;3.30;99.90
31369;DHT22;18004;48.416;10.066;2022-12-07T08:41:29;3.30;99.90
31369;DHT22;18004;48.416;10.066;2022-12-07T08:43:54;3.40;99.90
31369;DHT22;18004;48.416;10.066;2022-12-07T08:48:52;3.40;99.90
31369;DHT22;18004;48.416;10.066;2022-12-07T08:51:19;3.50;99.90
31369;DHT22;18004;48.416;10.066;2022-12-07T08:53:46;3.50;99.90
31369;DHT22;18004;48.416;10.066;2022-12-07T08:56:12;3.60;99.90
31369;DHT22;18004;48.416;10.066;2022-12-07T08:58:39;3.70;99.90
31369;DHT22;18004;48.416;10.066;2022-12-07T09:01:05;3.70;99.90
31369;DHT22;18004;48.416;10.066;2022-12-07T09:03:31;3.60;99.90
31369;DHT22;18004;48.416;10.066;2022-12-07T09:05:58;3.70;99.90
31369;DHT22;18004;48.416;10.066;2022-12-07T09:08:29;3.80;99.90
31369;DHT22;18004;48.416;10.066;2022-12-07T09:10:55;3.80;99.90
31369;DHT22;18004;48.416;10.066;2022-12-07T09:13:21;3.90;99.90
31369;DHT22;18004;48.416;10.066;2022-12-07T09:15:48;3.90;99.90
31369;DHT22;18004;48.416;10.066;2022-12-07T09:18:13;3.90;98.10
31369;DHT22;18004;48.416;10.066;2022-12-07T09:20:39;3.90;97.60
31369;DHT22;18004;48.416;10.066;2022-12-07T09:23:06;3.90;96.30
31369;DHT22;18004;48.416;10.066;2022-12-07T09:25:33;3.90;93.60
31369;DHT22;18004;48.416;10.066;2022-12-07T09:28:02;3.80;93.30
31369;DHT22;18004;48.416;10.066;2022-12-07T09:30:28;3.90;94.70
31369;DHT22;18004;48.416;10.066;2022-12-07T09:32:55;3.90;92.80
31369;DHT22;18004;48.416;10.066;2022-12-07T09:35:25;3.90;91.60
31369;DHT22;18004;48.416;10.066;2022-12-07T09:37:51;3.90;90.40
31369;DHT22;18004;48.416;10.066;2022-12-07T09:40:19;3.90;91.40
31369;DHT22;18004;48.416;10.066;2022-12-07T09:42:49;3.90;90.80
31369;DHT22;18004;48.416;10.066;2022-12-07T09:45:28;4.00;92.00
31369;DHT22;18004;48.416;10.066;2022-12-07T09:47:55;3.90;90.40
31369;DHT22;18004;48.416;10.066;2022-12-07T09:50:24;3.90;91.10
31369;DHT22;18004;48.416;10.066;2022-12-07T09:52:52;4.00;91.90
31369;DHT22;18004;48.416;10.066;2022-12-07T09:55:27;4.00;92.60
31369;DHT22;18004;48.416;10.066;2022-12-07T09:57:54;4.10;93.00
31369;DHT22;18004;48.416;10.066;2022-12-07T10:00:22;4.20;93.40
31369;DHT22;18004;48.416;10.066;2022-12-07T10:05:32;4.30;91.70
31369;DHT22;18004;48.416;10.066;2022-12-07T10:08:00;4.30;91.70
31369;DHT22;18004;48.416;10.066;2022-12-07T10:10:31;4.30;90.70
31369;DHT22;18004;48.416;10.066;2022-12-07T10:15:37;4.20;90.80
31369;DHT22;18004;48.416;10.066;2022-12-07T10:23:40;4.60;91.00
31369;DHT22;18004;48.416;10.066;2022-12-07T10:26:29;4.60;90.00
31369;DHT22;18004;48.416;10.066;2022-12-07T10:28:57;4.50;86.00
31369;DHT22;18004;48.416;10.066;2022-12-07T10:31:24;4.50;85.30
31369;DHT22;18004;48.416;10.066;2022-12-07T10:33:56;4.40;86.70
31369;DHT22;18004;48.416;10.066;2022-12-07T10:36:33;4.40;88.10
31369;DHT22;18004;48.416;10.066;2022-12-07T10:39:15;4.50;86.50
31369;DHT22;18004;48.416;10.066;2022-12-07T10:41:56;4.60;89.20
31369;DHT22;18004;48.416;10.066;2022-12-07T10:44:27;4.60;89.70
31369;DHT22;18004;48.416;10.066;2022-12-07T11:00:55;4.90;82.60
31369;DHT22;18004;48.416;10.066;2022-12-07T11:06:26;4.80;80.10
31369;DHT22;18004;48.416;10.066;2022-12-07T11:09:18;4.70;77.70
31369;DHT22;18004;48.416;10.066;2022-12-07T11:18:07;4.70;80.20
31369;DHT22;18004;48.416;10.066;2022-12-07T11:20:41;4.80;80.10
31369;DHT22;18004;48.416;10.066;2022-12-07T11:28:58;5.00;82.70
31369;DHT22;18004;48.416;10.066;2022-12-07T11:37:21;5.10;77.50
31369;DHT22;18004;48.416;10.066;2022-12-07T11:39:54;5.10;75.00
31369;DHT22;18004;48.416;10.066;2022-12-07T11:42:25;5.30;82.20
31369;DHT22;18004;48.416;10.066;2022-12-07T11:47:47;5.30;76.70
31369;DHT22;18004;48.416;10.066;2022-12-07T11:50:36;5.40;78.00
31369;DHT22;18004;48.416;10.066;2022-12-07T11:58:51;5.60;71.90
31369;DHT22;18004;48.416;10.066;2022-12-07T12:06:42;5.00;71.50
31369;DHT22;18004;48.416;10.066;2022-12-07T12:09:12;4.90;72.20
31369;DHT22;18004;48.416;10.066;2022-12-07T12:12:23;4.90;72.50
31369;DHT22;18004;48.416;10.066;2022-12-07T12:15:18;4.90;73.50
31369;DHT22;18004;48.416;10.066;2022-12-07T12:18:22;4.90;70.90
31369;DHT22;18004;48.416;10.066;2022-12-07T12:21:04;4.90;74.10
31369;DHT22;18004;48.416;10.066;2022-12-07T12:23:55;5.00;74.70
31369;DHT22;18004;48.416;10.066;2022-12-07T12:26:32;5.00;73.00
31369;DHT22;18004;48.416;10.066;2022-12-07T12:32:06;5.00;73.10
31369;DHT22;18004;48.416;10.066;2022-12-07T12:34:40;5.00;74.90
31369;DHT22;18004;48.416;10.066;2022-12-07T12:45:32;5.10;73.20
31369;DHT22;18004;48.416;10.066;2022-12-07T12:48:01;5.00;73.60
31369;DHT22;18004;48.416;10.066;2022-12-07T12:50:36;5.00;74.50
31369;DHT22;18004;48.416;10.066;2022-12-07T12:53:23;5.00;70.20
31369;DHT22;18004;48.416;10.066;2022-12-07T12:56:09;5.00;72.40
31369;DHT22;18004;48.416;10.066;2022-12-07T12:58:39;5.00;70.60
31369;DHT22;18004;48.416;10.066;2022-12-07T13:01:40;4.90;71.60
31369;DHT22;18004;48.416;10.066;2022-12-07T13:04:37;5.00;74.80
31369;DHT22;18004;48.416;10.066;2022-12-07T13:07:04;5.00;72.60
31369;DHT22;18004;48.416;10.066;2022-12-07T13:09:33;5.10;75.70
31369;DHT22;18004;48.416;10.066;2022-12-07T13:12:20;5.10;73.40
31369;DHT22;18004;48.416;10.066;2022-12-07T13:14:57;5.10;73.70
31369;DHT22;18004;48.416;10.066;2022-12-07T13:19:59;5.10;73.70
31369;DHT22;18004;48.416;10.066;2022-12-07T13:25:36;5.10;72.90
31369;DHT22;18004;48.416;10.066;2022-12-07T13:33:29;5.30;82.70
31369;DHT22;18004;48.416;10.066;2022-12-07T13:35:56;5.20;70.90
31369;DHT22;18004;48.416;10.066;2022-12-07T13:38:29;5.30;76.00
31369;DHT22;18004;48.416;10.066;2022-12-07T13:41:13;5.40;75.20
31369;DHT22;18004;48.416;10.066;2022-12-07T13:44:14;5.30;68.20
31369;DHT22;18004;48.416;10.066;2022-12-07T13:49:38;5.10;64.50
31369;DHT22;18004;48.416;10.066;2022-12-07T13:52:14;4.90;61.90
31369;DHT22;18004;48.416;10.066;2022-12-07T13:57:31;5.00;68.40
31369;DHT22;18004;48.416;10.066;2022-12-07T14:00:00;5.00;60.00
31369;DHT22;18004;48.416;10.066;2022-12-07T14:02:31;5.00;61.70
31369;DHT22;18004;48.416;10.066;2022-12-07T14:07:35;5.00;61.70
31369;DHT22;18004;48.416;10.066;2022-12-07T14:10:05;4.90;62.30
31369;DHT22;18004;48.416;10.066;2022-12-07T14:12:32;4.90;64.50
31369;DHT22;18004;48.416;10.066;2022-12-07T14:15:02;4.90;67.00
31369;DHT22;18004;48.416;10.066;2022-12-07T14:17:28;5.00;70.60
31369;DHT22;18004;48.416;10.066;2022-12-07T14:19:58;5.00;68.00
31369;DHT22;18004;48.416;10.066;2022-12-07T14:22:31;4.90;68.20
31369;DHT22;18004;48.416;10.066;2022-12-07T14:25:17;4.90;68.60
31369;DHT22;18004;48.416;10.066;2022-12-07T14:27:51;4.90;67.90
31369;DHT22;18004;48.416;10.066;2022-12-07T14:30:19;4.90;66.50
31369;DHT22;18004;48.416;10.066;2022-12-07T14:32:45;4.90;65.00
31369;DHT22;18004;48.416;10.066;2022-12-07T14:35:16;4.80;62.80
31369;DHT22;18004;48.416;10.066;2022-12-07T14:37:44;4.80;64.50
31369;DHT22;18004;48.416;10.066;2022-12-07T14:40:19;4.70;66.40
31369;DHT22;18004;48.416;10.066;2022-12-07T14:42:47;4.70;63.50
31369;DHT22;18004;48.416;10.066;2022-12-07T14:45:16;4.60;62.20
31369;DHT22;18004;48.416;10.066;2022-12-07T14:47:43;4.60;64.20
31369;DHT22;18004;48.416;10.066;2022-12-07T14:50:15;4.60;66.20
31369;DHT22;18004;48.416;10.066;2022-12-07T14:52:43;4.50;65.00
31369;DHT22;18004;48.416;10.066;2022-12-07T14:55:27;4.50;65.50
31369;DHT22;18004;48.416;10.066;2022-12-07T14:57:53;4.50;67.10
31369;DHT22;18004;48.416;10.066;2022-12-07T15:00:21;4.50;68.40
31369;DHT22;18004;48.416;10.066;2022-12-07T15:02:47;4.50;71.20
31369;DHT22;18004;48.416;10.066;2022-12-07T15:05:14;4.50;70.30
31369;DHT22;18004;48.416;10.066;2022-12-07T15:07:40;4.50;71.00
31369;DHT22;18004;48.416;10.066;2022-12-07T15:10:13;4.50;71.90
31369;DHT22;18004;48.416;10.066;2022-12-07T15:12:40;4.40;72.30
31369;DHT22;18004;48.416;10.066;2022-12-07T15:15:06;4.40;74.50
31369;DHT22;18004;48.416;10.066;2022-12-07T15:17:31;4.40;73.70
31369;DHT22;18004;48.416;10.066;2022-12-07T15:19:57;4.40;74.00
31369;DHT22;18004;48.416;10.066;2022-12-07T15:22:23;4.40;74.50
31369;DHT22;18004;48.416;10.066;2022-12-07T15:24:49;4.40;76.20
31369;DHT22;18004;48.416;10.066;2022-12-07T15:27:15;4.30;76.80
31369;DHT22;18004;48.416;10.066;2022-12-07T15:29:40;4.20;78.50
31369;DHT22;18004;48.416;10.066;2022-12-07T15:32:06;4.30;80.10
31369;DHT22;18004;48.416;10.066;2022-12-07T15:34:35;4.30;80.10
31369;DHT22;18004;48.416;10.066;2022-12-07T15:37:00;4.30;80.80
31369;DHT22;18004;48.416;10.066;2022-12-07T15:39:26;4.20;82.00
31369;DHT22;18004;48.416;10.066;2022-12-07T15:41:52;4.20;83.10
31369;DHT22;18004;48.416;10.066;2022-12-07T15:44:18;4.20;83.00
31369;DHT22;18004;48.416;10.066;2022-12-07T15:47:04;4.10;82.50
31369;DHT22;18004;48.416;10.066;2022-12-07T15:49:30;4.10;84.30
31369;DHT22;18004;48.416;10.066;2022-12-07T15:51:56;4.00;84.70
31369;DHT22;18004;48.416;10.066;2022-12-07T15:54:25;4.00;85.40
31369;DHT22;18004;48.416;10.066;2022-12-07T15:56:52;4.00;87.20
31369;DHT22;18004;48.416;10.066;2022-12-07T15:59:17;3.90;87.70
31369;DHT22;18004;48.416;10.066;2022-12-07T16:01:44;4.00;88.70
31369;DHT22;18004;48.416;10.066;2022-12-07T16:04:11;4.00;88.30
31369;DHT22;18004;48.416;10.066;2022-12-07T16:06:36;4.00;88.60
31369;DHT22;18004;48.416;10.066;2022-12-07T16:09:03;4.00;89.70
31369;DHT22;18004;48.416;10.066;2022-12-07T16:11:29;4.00;89.50
31369;DHT22;18004;48.416;10.066;2022-12-07T16:13:54;3.90;90.10
31369;DHT22;18004;48.416;10.066;2022-12-07T16:16:21;3.90;90.60
31369;DHT22;18004;48.416;10.066;2022-12-07T16:18:50;4.00;90.60
31369;DHT22;18004;48.416;10.066;2022-12-07T16:21:16;4.00;91.10
31369;DHT22;18004;48.416;10.066;2022-12-07T16:23:43;4.00;91.30
31369;DHT22;18004;48.416;10.066;2022-12-07T16:26:12;4.00;90.90
31369;DHT22;18004;48.416;10.066;2022-12-07T16:28:39;4.00;91.20
31369;DHT22;18004;48.416;10.066;2022-12-07T16:31:07;3.90;91.60
31369;DHT22;18004;48.416;10.066;2022-12-07T16:33:38;3.90;92.10
31369;DHT22;18004;48.416;10.066;2022-12-07T16:36:06;4.00;92.20
31369;DHT22;18004;48.416;10.066;2022-12-07T16:38:33;3.90;92.90
31369;DHT22;18004;48.416;10.066;2022-12-07T16:40:59;3.80;93.50
31369;DHT22;18004;48.416;10.066;2022-12-07T16:43:24;3.70;94.10
31369;DHT22;18004;48.416;10.066;2022-12-07T16:45:50;3.70;94.50
31369;DHT22;18004;48.416;10.066;2022-12-07T16:48:17;3.70;94.60
31369;DHT22;18004;48.416;10.066;2022-12-07T16:50:44;3.70;94.80
31369;DHT22;18004;48.416;10.066;2022-12-07T16:53:11;3.70;94.80
31369;DHT22;18004;48.416;10.066;2022-12-07T16:55:44;3.70;94.80
31369;DHT22;18004;48.416;10.066;2022-12-07T16:58:11;3.80;94.90
31369;DHT22;18004;48.416;10.066;2022-12-07T17:00:38;3.70;95.30
31369;DHT22;18004;48.416;10.066;2022-12-07T17:03:04;3.70;95.30
31369;DHT22;18004;48.416;10.066;2022-12-07T17:05:30;3.70;95.50
31369;DHT22;18004;48.416;10.066;2022-12-07T17:07:57;3.60;95.80
31369;DHT22;18004;48.416;10.066;2022-12-07T17:10:24;3.70;95.90
31369;DHT22;18004;48.416;10.066;2022-12-07T17:12:50;3.70;96.10
31369;DHT22;18004;48.416;10.066;2022-12-07T17:15:17;3.70;96.10
31369;DHT22;18004;48.416;10.066;2022-12-07T17:17:51;3.60;96.30
31369;DHT22;18004;48.416;10.066;2022-12-07T17:20:18;3.70;96.50
31369;DHT22;18004;48.416;10.066;2022-12-07T17:22:46;3.70;96.40
31369;DHT22;18004;48.416;10.066;2022-12-07T17:25:12;3.70;96.30
31369;DHT22;18004;48.416;10.066;2022-12-07T17:27:38;3.70;96.20
31369;DHT22;18004;48.416;10.066;2022-12-07T17:30:05;3.80;96.80
31369;DHT22;18004;48.416;10.066;2022-12-07T17:32:31;3.80;96.40
31369;DHT22;18004;48.416;10.066;2022-12-07T17:34:57;3.80;96.50
31369;DHT22;18004;48.416;10.066;2022-12-07T17:37:23;3.80;96.50
31369;DHT22;18004;48.416;10.066;2022-12-07T17:39:48;3.80;96.60
31369;DHT22;18004;48.416;10.066;2022-12-07T17:42:15;3.80;96.70
31369;DHT22;18004;48.416;10.066;2022-12-07T17:44:59;3.70;96.70
31369;DHT22;18004;48.416;10.066;2022-12-07T17:47:25;3.70;97.00
31369;DHT22;18004;48.416;10.066;2022-12-07T17:49:51;3.70;97.20
31369;DHT22;18004;48.416;10.066;2022-12-07T17:52:17;3.70;97.40
31369;DHT22;18004;48.416;10.066;2022-12-07T17:55:01;3.60;97.30
31369;DHT22;18004;48.416;10.066;2022-12-07T17:57:27;3.60;98.20
31369;DHT22;18004;48.416;10.066;2022-12-07T17:59:52;3.60;97.70
31369;DHT22;18004;48.416;10.066;2022-12-07T18:02:21;3.60;97.80
31369;DHT22;18004;48.416;10.066;2022-12-07T18:04:46;3.50;97.90
31369;DHT22;18004;48.416;10.066;2022-12-07T18:07:12;3.60;98.20